Bonita, California
Current Conditions -  °F | °C
As of 10:53 PM on Thursday 30 Oct 2014 (Local Time) from KSDM Reporting Station
Overcast Overcast  
Wind Chill: 66°   Ceiling: 1700
Heat Index: 66°   Visibility: 10mi
Dew Point: 61°   Wind: 0mph
Humidity: 84%   Direction: NA
Pressure: 29.98"   Gusts: NA
Location:  32.67°N, 117.01°W
Report Text: KSDM 310553Z AUTO 00000KT 10SM FEW008 OVC017 19/16 A2998 RMK AO2 SLP148 T01890161 10206 20161 53001 TSNO $
Loading
Personal Weather Stations






























Interactive Weather Map
Tropical Storm Tracking
New forecast layout! Learn more

10-Day Weather Forecast

Advertisements
Track Severe Weather on mobile